sensor_id;sensor_type;location;lat;lon;timestamp;P1;durP1;ratioP1;P2;durP2;ratioP2
19879;SDS011;10102;50.828;4.416;2024-02-26T00:00:15;3.08;;;1.90;;
19879;SDS011;10102;50.828;4.416;2024-02-26T00:02:41;2.55;;;2.00;;
19879;SDS011;10102;50.828;4.416;2024-02-26T00:05:07;3.13;;;1.80;;
19879;SDS011;10102;50.828;4.416;2024-02-26T00:07:33;2.78;;;1.90;;
19879;SDS011;10102;50.828;4.416;2024-02-26T00:09:59;2.75;;;1.80;;
19879;SDS011;10102;50.828;4.416;2024-02-26T00:12:25;6.13;;;2.30;;
19879;SDS011;10102;50.828;4.416;2024-02-26T00:14:50;2.83;;;1.83;;
19879;SDS011;10102;50.828;4.416;2024-02-26T00:17:17;3.35;;;1.95;;
19879;SDS011;10102;50.828;4.416;2024-02-26T00:19:43;4.45;;;1.92;;
19879;SDS011;10102;50.828;4.416;2024-02-26T00:22:09;3.88;;;1.77;;
19879;SDS011;10102;50.828;4.416;2024-02-26T00:24:34;4.15;;;1.77;;
19879;SDS011;10102;50.828;4.416;2024-02-26T00:27:00;5.93;;;2.10;;
19879;SDS011;10102;50.828;4.416;2024-02-26T00:29:25;2.65;;;1.58;;
19879;SDS011;10102;50.828;4.416;2024-02-26T00:31:52;4.50;;;1.90;;
19879;SDS011;10102;50.828;4.416;2024-02-26T00:34:18;5.40;;;2.00;;
19879;SDS011;10102;50.828;4.416;2024-02-26T00:36:44;4.05;;;2.20;;
19879;SDS011;10102;50.828;4.416;2024-02-26T00:39:11;2.42;;;1.70;;
19879;SDS011;10102;50.828;4.416;2024-02-26T00:41:40;3.65;;;2.42;;
19879;SDS011;10102;50.828;4.416;2024-02-26T00:44:06;4.35;;;1.83;;
19879;SDS011;10102;50.828;4.416;2024-02-26T00:46:32;2.00;;;1.83;;
19879;SDS011;10102;50.828;4.416;2024-02-26T00:48:58;3.38;;;2.10;;
19879;SDS011;10102;50.828;4.416;2024-02-26T00:51:23;2.25;;;1.60;;
19879;SDS011;10102;50.828;4.416;2024-02-26T00:53:49;2.00;;;1.80;;
19879;SDS011;10102;50.828;4.416;2024-02-26T00:56:15;3.03;;;2.00;;
19879;SDS011;10102;50.828;4.416;2024-02-26T00:58:40;3.03;;;1.80;;
19879;SDS011;10102;50.828;4.416;2024-02-26T01:01:06;6.47;;;2.00;;
19879;SDS011;10102;50.828;4.416;2024-02-26T01:03:31;2.03;;;1.83;;
19879;SDS011;10102;50.828;4.416;2024-02-26T01:05:57;3.55;;;1.85;;
19879;SDS011;10102;50.828;4.416;2024-02-26T01:08:23;1.90;;;1.58;;
19879;SDS011;10102;50.828;4.416;2024-02-26T01:10:49;2.28;;;1.77;;
19879;SDS011;10102;50.828;4.416;2024-02-26T01:13:14;2.40;;;2.20;;
19879;SDS011;10102;50.828;4.416;2024-02-26T01:15:40;2.28;;;1.83;;
19879;SDS011;10102;50.828;4.416;2024-02-26T01:18:05;2.15;;;1.95;;
19879;SDS011;10102;50.828;4.416;2024-02-26T01:20:31;2.20;;;1.60;;
19879;SDS011;10102;50.828;4.416;2024-02-26T01:22:57;3.30;;;2.17;;
19879;SDS011;10102;50.828;4.416;2024-02-26T01:25:22;4.07;;;2.05;;
19879;SDS011;10102;50.828;4.416;2024-02-26T01:27:48;3.83;;;1.90;;
19879;SDS011;10102;50.828;4.416;2024-02-26T01:30:14;3.22;;;1.70;;
19879;SDS011;10102;50.828;4.416;2024-02-26T01:32:41;2.58;;;1.80;;
19879;SDS011;10102;50.828;4.416;2024-02-26T01:35:07;3.65;;;1.90;;
19879;SDS011;10102;50.828;4.416;2024-02-26T01:37:36;2.72;;;1.80;;
19879;SDS011;10102;50.828;4.416;2024-02-26T01:40:02;3.80;;;1.85;;
19879;SDS011;10102;50.828;4.416;2024-02-26T01:42:32;5.10;;;2.22;;
19879;SDS011;10102;50.828;4.416;2024-02-26T01:44:58;1.80;;;1.70;;
19879;SDS011;10102;50.828;4.416;2024-02-26T01:47:24;3.65;;;1.63;;
19879;SDS011;10102;50.828;4.416;2024-02-26T01:49:50;3.55;;;1.90;;
19879;SDS011;10102;50.828;4.416;2024-02-26T01:52:16;4.38;;;1.60;;
19879;SDS011;10102;50.828;4.416;2024-02-26T01:54:42;1.95;;;1.67;;
19879;SDS011;10102;50.828;4.416;2024-02-26T01:57:10;3.30;;;1.83;;
19879;SDS011;10102;50.828;4.416;2024-02-26T01:59:37;5.38;;;1.90;;
19879;SDS011;10102;50.828;4.416;2024-02-26T02:02:05;1.83;;;1.60;;
19879;SDS011;10102;50.828;4.416;2024-02-26T02:04:34;2.45;;;1.70;;
19879;SDS011;10102;50.828;4.416;2024-02-26T02:07:00;3.50;;;1.98;;
19879;SDS011;10102;50.828;4.416;2024-02-26T02:09:29;3.35;;;1.50;;
19879;SDS011;10102;50.828;4.416;2024-02-26T02:11:55;2.70;;;1.60;;
19879;SDS011;10102;50.828;4.416;2024-02-26T02:14:21;1.88;;;1.60;;
19879;SDS011;10102;50.828;4.416;2024-02-26T02:16:47;2.22;;;1.80;;
19879;SDS011;10102;50.828;4.416;2024-02-26T02:19:13;1.98;;;1.65;;
19879;SDS011;10102;50.828;4.416;2024-02-26T02:21:39;2.20;;;1.60;;
19879;SDS011;10102;50.828;4.416;2024-02-26T02:24:04;4.13;;;1.75;;
19879;SDS011;10102;50.828;4.416;2024-02-26T02:26:30;3.20;;;2.00;;
19879;SDS011;10102;50.828;4.416;2024-02-26T02:28:56;4.80;;;1.67;;
19879;SDS011;10102;50.828;4.416;2024-02-26T02:31:22;2.85;;;1.65;;
19879;SDS011;10102;50.828;4.416;2024-02-26T02:33:48;3.25;;;1.63;;
19879;SDS011;10102;50.828;4.416;2024-02-26T02:36:14;1.90;;;1.50;;
19879;SDS011;10102;50.828;4.416;2024-02-26T02:38:48;2.83;;;1.42;;
19879;SDS011;10102;50.828;4.416;2024-02-26T02:41:15;1.42;;;1.23;;
19879;SDS011;10102;50.828;4.416;2024-02-26T02:43:41;1.83;;;1.70;;
19879;SDS011;10102;50.828;4.416;2024-02-26T02:46:06;2.28;;;1.73;;
19879;SDS011;10102;50.828;4.416;2024-02-26T02:48:32;1.73;;;1.58;;
19879;SDS011;10102;50.828;4.416;2024-02-26T02:50:58;1.75;;;1.40;;
19879;SDS011;10102;50.828;4.416;2024-02-26T02:53:23;1.40;;;1.30;;
19879;SDS011;10102;50.828;4.416;2024-02-26T02:55:49;1.70;;;1.58;;
19879;SDS011;10102;50.828;4.416;2024-02-26T02:58:14;2.08;;;1.50;;
19879;SDS011;10102;50.828;4.416;2024-02-26T03:00:40;3.17;;;1.80;;
19879;SDS011;10102;50.828;4.416;2024-02-26T03:03:06;4.20;;;1.70;;
19879;SDS011;10102;50.828;4.416;2024-02-26T03:05:32;2.22;;;2.03;;
19879;SDS011;10102;50.828;4.416;2024-02-26T03:07:57;1.70;;;1.60;;
19879;SDS011;10102;50.828;4.416;2024-02-26T03:10:23;3.70;;;1.60;;
19879;SDS011;10102;50.828;4.416;2024-02-26T03:12:49;2.20;;;1.75;;
19879;SDS011;10102;50.828;4.416;2024-02-26T03:15:15;4.32;;;1.98;;
19879;SDS011;10102;50.828;4.416;2024-02-26T03:17:41;1.55;;;1.45;;
19879;SDS011;10102;50.828;4.416;2024-02-26T03:20:08;2.05;;;1.70;;
19879;SDS011;10102;50.828;4.416;2024-02-26T03:22:34;1.70;;;1.60;;
19879;SDS011;10102;50.828;4.416;2024-02-26T03:25:00;3.33;;;2.15;;
19879;SDS011;10102;50.828;4.416;2024-02-26T03:27:26;3.17;;;1.63;;
19879;SDS011;10102;50.828;4.416;2024-02-26T03:29:52;3.35;;;1.83;;
19879;SDS011;10102;50.828;4.416;2024-02-26T03:32:19;3.38;;;1.60;;
19879;SDS011;10102;50.828;4.416;2024-02-26T03:34:44;6.07;;;2.17;;
19879;SDS011;10102;50.828;4.416;2024-02-26T03:37:10;2.65;;;1.80;;
19879;SDS011;10102;50.828;4.416;2024-02-26T03:39:36;1.88;;;1.73;;
19879;SDS011;10102;50.828;4.416;2024-02-26T03:42:02;2.72;;;1.90;;
19879;SDS011;10102;50.828;4.416;2024-02-26T03:44:28;3.45;;;1.80;;
19879;SDS011;10102;50.828;4.416;2024-02-26T03:46:54;3.75;;;1.70;;
19879;SDS011;10102;50.828;4.416;2024-02-26T03:49:21;2.70;;;1.65;;
19879;SDS011;10102;50.828;4.416;2024-02-26T03:51:47;6.32;;;1.70;;
19879;SDS011;10102;50.828;4.416;2024-02-26T03:54:13;2.45;;;1.55;;
19879;SDS011;10102;50.828;4.416;2024-02-26T03:56:39;2.00;;;1.73;;
19879;SDS011;10102;50.828;4.416;2024-02-26T03:59:04;4.38;;;1.88;;
19879;SDS011;10102;50.828;4.416;2024-02-26T04:01:30;2.55;;;2.25;;
19879;SDS011;10102;50.828;4.416;2024-02-26T04:03:56;2.05;;;1.67;;
19879;SDS011;10102;50.828;4.416;2024-02-26T04:06:21;3.58;;;1.98;;
19879;SDS011;10102;50.828;4.416;2024-02-26T04:08:47;2.58;;;2.10;;
19879;SDS011;10102;50.828;4.416;2024-02-26T04:11:13;4.13;;;1.92;;
19879;SDS011;10102;50.828;4.416;2024-02-26T04:13:43;2.67;;;2.15;;
19879;SDS011;10102;50.828;4.416;2024-02-26T04:16:11;4.80;;;2.13;;
19879;SDS011;10102;50.828;4.416;2024-02-26T04:18:37;3.30;;;2.10;;
19879;SDS011;10102;50.828;4.416;2024-02-26T04:21:04;4.40;;;2.10;;
19879;SDS011;10102;50.828;4.416;2024-02-26T04:23:30;4.30;;;2.63;;
19879;SDS011;10102;50.828;4.416;2024-02-26T04:25:56;2.80;;;2.00;;
19879;SDS011;10102;50.828;4.416;2024-02-26T04:28:22;4.25;;;2.30;;
19879;SDS011;10102;50.828;4.416;2024-02-26T04:30:50;2.80;;;2.38;;
19879;SDS011;10102;50.828;4.416;2024-02-26T04:33:16;4.93;;;2.45;;
19879;SDS011;10102;50.828;4.416;2024-02-26T04:35:42;3.08;;;2.78;;
19879;SDS011;10102;50.828;4.416;2024-02-26T04:38:07;4.72;;;3.00;;
19879;SDS011;10102;50.828;4.416;2024-02-26T04:40:33;2.78;;;2.33;;
19879;SDS011;10102;50.828;4.416;2024-02-26T04:42:59;5.90;;;3.20;;
19879;SDS011;10102;50.828;4.416;2024-02-26T04:45:25;3.28;;;2.97;;
19879;SDS011;10102;50.828;4.416;2024-02-26T04:47:50;3.53;;;3.17;;
19879;SDS011;10102;50.828;4.416;2024-02-26T04:50:16;4.53;;;3.28;;
19879;SDS011;10102;50.828;4.416;2024-02-26T04:52:42;5.60;;;3.78;;
19879;SDS011;10102;50.828;4.416;2024-02-26T04:55:08;3.75;;;3.40;;
19879;SDS011;10102;50.828;4.416;2024-02-26T04:57:33;3.70;;;3.30;;
19879;SDS011;10102;50.828;4.416;2024-02-26T04:59:59;4.15;;;3.17;;
19879;SDS011;10102;50.828;4.416;2024-02-26T05:02:25;6.55;;;4.07;;
19879;SDS011;10102;50.828;4.416;2024-02-26T05:04:51;5.15;;;3.80;;
19879;SDS011;10102;50.828;4.416;2024-02-26T05:07:16;4.20;;;3.55;;
19879;SDS011;10102;50.828;4.416;2024-02-26T05:09:42;4.03;;;3.60;;
19879;SDS011;10102;50.828;4.416;2024-02-26T05:12:09;4.55;;;3.65;;
19879;SDS011;10102;50.828;4.416;2024-02-26T05:14:34;8.65;;;4.00;;
19879;SDS011;10102;50.828;4.416;2024-02-26T05:17:00;4.95;;;4.10;;
19879;SDS011;10102;50.828;4.416;2024-02-26T05:19:26;5.30;;;4.32;;
19879;SDS011;10102;50.828;4.416;2024-02-26T05:21:52;4.70;;;3.65;;
19879;SDS011;10102;50.828;4.416;2024-02-26T05:24:18;4.95;;;4.00;;
19879;SDS011;10102;50.828;4.416;2024-02-26T05:26:47;4.95;;;4.35;;
19879;SDS011;10102;50.828;4.416;2024-02-26T05:29:13;5.47;;;4.32;;
19879;SDS011;10102;50.828;4.416;2024-02-26T05:31:38;6.13;;;4.95;;
19879;SDS011;10102;50.828;4.416;2024-02-26T05:34:05;7.05;;;4.68;;
19879;SDS011;10102;50.828;4.416;2024-02-26T05:36:30;6.97;;;5.05;;
19879;SDS011;10102;50.828;4.416;2024-02-26T05:38:59;5.93;;;5.00;;
19879;SDS011;10102;50.828;4.416;2024-02-26T05:41:25;7.32;;;5.57;;
19879;SDS011;10102;50.828;4.416;2024-02-26T05:43:57;11.23;;;5.45;;
19879;SDS011;10102;50.828;4.416;2024-02-26T05:46:23;7.57;;;5.70;;
19879;SDS011;10102;50.828;4.416;2024-02-26T05:48:50;9.77;;;6.78;;
19879;SDS011;10102;50.828;4.416;2024-02-26T05:51:17;10.10;;;6.72;;
19879;SDS011;10102;50.828;4.416;2024-02-26T05:53:43;11.10;;;7.00;;
19879;SDS011;10102;50.828;4.416;2024-02-26T05:56:09;10.77;;;7.07;;
19879;SDS011;10102;50.828;4.416;2024-02-26T05:58:34;12.82;;;8.00;;
19879;SDS011;10102;50.828;4.416;2024-02-26T06:01:01;10.90;;;7.88;;
19879;SDS011;10102;50.828;4.416;2024-02-26T06:03:26;12.18;;;7.63;;
19879;SDS011;10102;50.828;4.416;2024-02-26T06:05:52;11.02;;;8.00;;
19879;SDS011;10102;50.828;4.416;2024-02-26T06:08:18;11.50;;;8.38;;
19879;SDS011;10102;50.828;4.416;2024-02-26T06:10:43;11.63;;;8.10;;
19879;SDS011;10102;50.828;4.416;2024-02-26T06:13:09;11.90;;;8.43;;
19879;SDS011;10102;50.828;4.416;2024-02-26T06:15:35;11.20;;;8.50;;
19879;SDS011;10102;50.828;4.416;2024-02-26T06:18:01;14.20;;;7.78;;
19879;SDS011;10102;50.828;4.416;2024-02-26T06:20:27;15.30;;;8.13;;
19879;SDS011;10102;50.828;4.416;2024-02-26T06:22:53;12.38;;;9.13;;
19879;SDS011;10102;50.828;4.416;2024-02-26T06:25:18;11.68;;;8.75;;
19879;SDS011;10102;50.828;4.416;2024-02-26T06:27:44;11.35;;;8.80;;
19879;SDS011;10102;50.828;4.416;2024-02-26T06:30:10;13.10;;;9.05;;
19879;SDS011;10102;50.828;4.416;2024-02-26T06:32:39;11.45;;;7.90;;
19879;SDS011;10102;50.828;4.416;2024-02-26T06:35:05;10.95;;;7.75;;
19879;SDS011;10102;50.828;4.416;2024-02-26T06:37:33;8.75;;;7.72;;
19879;SDS011;10102;50.828;4.416;2024-02-26T06:39:59;9.38;;;8.05;;
19879;SDS011;10102;50.828;4.416;2024-02-26T06:42:25;11.18;;;8.00;;
19879;SDS011;10102;50.828;4.416;2024-02-26T06:44:51;12.23;;;8.25;;
19879;SDS011;10102;50.828;4.416;2024-02-26T06:47:16;9.98;;;8.55;;
19879;SDS011;10102;50.828;4.416;2024-02-26T06:49:42;11.50;;;8.35;;
19879;SDS011;10102;50.828;4.416;2024-02-26T06:52:09;11.23;;;8.57;;
19879;SDS011;10102;50.828;4.416;2024-02-26T06:54:34;14.05;;;8.52;;
19879;SDS011;10102;50.828;4.416;2024-02-26T06:57:00;11.43;;;7.70;;
19879;SDS011;10102;50.828;4.416;2024-02-26T06:59:26;9.60;;;8.15;;
19879;SDS011;10102;50.828;4.416;2024-02-26T07:01:51;12.93;;;8.27;;
19879;SDS011;10102;50.828;4.416;2024-02-26T07:04:17;11.93;;;8.40;;
19879;SDS011;10102;50.828;4.416;2024-02-26T07:06:43;10.25;;;8.40;;
19879;SDS011;10102;50.828;4.416;2024-02-26T07:09:09;9.30;;;8.07;;
19879;SDS011;10102;50.828;4.416;2024-02-26T07:11:37;11.57;;;9.02;;
19879;SDS011;10102;50.828;4.416;2024-02-26T07:14:04;10.82;;;8.23;;
19879;SDS011;10102;50.828;4.416;2024-02-26T07:16:30;9.85;;;7.82;;
19879;SDS011;10102;50.828;4.416;2024-02-26T07:18:56;11.90;;;8.10;;
19879;SDS011;10102;50.828;4.416;2024-02-26T07:21:21;8.82;;;7.88;;
19879;SDS011;10102;50.828;4.416;2024-02-26T07:23:47;10.73;;;8.32;;
19879;SDS011;10102;50.828;4.416;2024-02-26T07:26:13;11.07;;;8.48;;
19879;SDS011;10102;50.828;4.416;2024-02-26T07:28:38;10.48;;;8.82;;
19879;SDS011;10102;50.828;4.416;2024-02-26T07:31:04;9.88;;;8.38;;
19879;SDS011;10102;50.828;4.416;2024-02-26T07:33:29;11.63;;;8.65;;
19879;SDS011;10102;50.828;4.416;2024-02-26T07:35:55;8.55;;;7.45;;
19879;SDS011;10102;50.828;4.416;2024-02-26T07:38:21;10.32;;;8.15;;
19879;SDS011;10102;50.828;4.416;2024-02-26T07:40:48;10.95;;;8.63;;
19879;SDS011;10102;50.828;4.416;2024-02-26T07:43:14;11.50;;;8.65;;
19879;SDS011;10102;50.828;4.416;2024-02-26T07:45:39;10.82;;;8.30;;
19879;SDS011;10102;50.828;4.416;2024-02-26T07:48:05;11.40;;;7.85;;
19879;SDS011;10102;50.828;4.416;2024-02-26T07:50:31;11.13;;;8.00;;
19879;SDS011;10102;50.828;4.416;2024-02-26T07:52:57;12.30;;;9.07;;
19879;SDS011;10102;50.828;4.416;2024-02-26T08:05:30;10.60;;;7.88;;
19879;SDS011;10102;50.828;4.416;2024-02-26T08:07:55;8.95;;;7.65;;
19879;SDS011;10102;50.828;4.416;2024-02-26T08:10:21;10.63;;;7.95;;
19879;SDS011;10102;50.828;4.416;2024-02-26T08:12:46;10.50;;;8.57;;
19879;SDS011;10102;50.828;4.416;2024-02-26T08:15:12;9.68;;;8.13;;
19879;SDS011;10102;50.828;4.416;2024-02-26T08:17:38;8.93;;;7.60;;
19879;SDS011;10102;50.828;4.416;2024-02-26T08:20:04;8.75;;;7.70;;
19879;SDS011;10102;50.828;4.416;2024-02-26T08:22:30;10.88;;;8.23;;
19879;SDS011;10102;50.828;4.416;2024-02-26T08:24:56;8.80;;;7.30;;
19879;SDS011;10102;50.828;4.416;2024-02-26T08:27:23;10.32;;;7.70;;
19879;SDS011;10102;50.828;4.416;2024-02-26T08:29:48;8.27;;;7.38;;
19879;SDS011;10102;50.828;4.416;2024-02-26T08:32:14;9.82;;;7.47;;
19879;SDS011;10102;50.828;4.416;2024-02-26T08:34:40;8.63;;;7.25;;
19879;SDS011;10102;50.828;4.416;2024-02-26T08:37:05;8.57;;;7.47;;
19879;SDS011;10102;50.828;4.416;2024-02-26T08:39:31;8.35;;;7.07;;
19879;SDS011;10102;50.828;4.416;2024-02-26T08:41:57;9.65;;;7.57;;
19879;SDS011;10102;50.828;4.416;2024-02-26T08:44:23;10.43;;;7.88;;
19879;SDS011;10102;50.828;4.416;2024-02-26T08:46:49;11.35;;;8.15;;
19879;SDS011;10102;50.828;4.416;2024-02-26T08:49:15;8.50;;;7.10;;
19879;SDS011;10102;50.828;4.416;2024-02-26T08:51:42;10.38;;;7.68;;
19879;SDS011;10102;50.828;4.416;2024-02-26T08:54:08;9.10;;;7.43;;
19879;SDS011;10102;50.828;4.416;2024-02-26T08:56:34;11.48;;;7.72;;
19879;SDS011;10102;50.828;4.416;2024-02-26T08:59:00;8.70;;;7.80;;
19879;SDS011;10102;50.828;4.416;2024-02-26T09:01:29;8.98;;;7.75;;
19879;SDS011;10102;50.828;4.416;2024-02-26T09:03:56;8.98;;;7.70;;
19879;SDS011;10102;50.828;4.416;2024-02-26T09:06:21;11.18;;;8.00;;
19879;SDS011;10102;50.828;4.416;2024-02-26T09:08:47;7.97;;;7.18;;
19879;SDS011;10102;50.828;4.416;2024-02-26T09:11:13;8.48;;;7.18;;
19879;SDS011;10102;50.828;4.416;2024-02-26T09:13:38;8.32;;;7.35;;
19879;SDS011;10102;50.828;4.416;2024-02-26T09:16:05;9.75;;;7.85;;
19879;SDS011;10102;50.828;4.416;2024-02-26T09:18:31;8.18;;;7.07;;
19879;SDS011;10102;50.828;4.416;2024-02-26T09:20:56;7.85;;;6.55;;
19879;SDS011;10102;50.828;4.416;2024-02-26T09:23:22;9.18;;;7.28;;
19879;SDS011;10102;50.828;4.416;2024-02-26T09:25:48;8.60;;;7.07;;
19879;SDS011;10102;50.828;4.416;2024-02-26T09:28:14;9.07;;;6.95;;
19879;SDS011;10102;50.828;4.416;2024-02-26T09:30:42;9.10;;;7.30;;
19879;SDS011;10102;50.828;4.416;2024-02-26T09:33:11;9.68;;;7.72;;
19879;SDS011;10102;50.828;4.416;2024-02-26T09:35:38;8.82;;;7.72;;
19879;SDS011;10102;50.828;4.416;2024-02-26T09:38:04;9.00;;;7.05;;
19879;SDS011;10102;50.828;4.416;2024-02-26T09:40:29;9.63;;;7.95;;
19879;SDS011;10102;50.828;4.416;2024-02-26T09:42:58;8.82;;;7.30;;
19879;SDS011;10102;50.828;4.416;2024-02-26T09:45:25;8.77;;;7.07;;
19879;SDS011;10102;50.828;4.416;2024-02-26T09:47:53;9.35;;;7.68;;
19879;SDS011;10102;50.828;4.416;2024-02-26T09:50:21;7.97;;;6.97;;
19879;SDS011;10102;50.828;4.416;2024-02-26T09:52:47;8.30;;;7.30;;
19879;SDS011;10102;50.828;4.416;2024-02-26T09:55:14;8.77;;;7.10;;
19879;SDS011;10102;50.828;4.416;2024-02-26T09:57:44;9.18;;;7.25;;
19879;SDS011;10102;50.828;4.416;2024-02-26T10:00:14;9.90;;;7.35;;
19879;SDS011;10102;50.828;4.416;2024-02-26T10:02:44;9.82;;;7.22;;
19879;SDS011;10102;50.828;4.416;2024-02-26T10:05:12;8.52;;;6.68;;
19879;SDS011;10102;50.828;4.416;2024-02-26T10:07:41;9.10;;;7.35;;
19879;SDS011;10102;50.828;4.416;2024-02-26T10:10:08;8.55;;;7.35;;
19879;SDS011;10102;50.828;4.416;2024-02-26T10:12:34;8.20;;;6.75;;
19879;SDS011;10102;50.828;4.416;2024-02-26T10:15:00;7.35;;;6.57;;
19879;SDS011;10102;50.828;4.416;2024-02-26T10:17:26;7.57;;;6.57;;
19879;SDS011;10102;50.828;4.416;2024-02-26T10:19:53;8.88;;;6.07;;
19879;SDS011;10102;50.828;4.416;2024-02-26T10:22:21;8.23;;;5.97;;
19879;SDS011;10102;50.828;4.416;2024-02-26T10:24:47;7.88;;;5.78;;
19879;SDS011;10102;50.828;4.416;2024-02-26T10:27:13;7.80;;;6.40;;
19879;SDS011;10102;50.828;4.416;2024-02-26T10:29:40;7.15;;;6.00;;
19879;SDS011;10102;50.828;4.416;2024-02-26T10:32:08;7.50;;;5.75;;
19879;SDS011;10102;50.828;4.416;2024-02-26T10:34:34;6.30;;;5.22;;
19879;SDS011;10102;50.828;4.416;2024-02-26T10:37:03;7.45;;;6.03;;
19879;SDS011;10102;50.828;4.416;2024-02-26T10:39:30;5.68;;;5.13;;
19879;SDS011;10102;50.828;4.416;2024-02-26T10:41:55;7.68;;;5.32;;
19879;SDS011;10102;50.828;4.416;2024-02-26T10:44:21;6.32;;;5.50;;
19879;SDS011;10102;50.828;4.416;2024-02-26T10:46:48;7.82;;;5.40;;
19879;SDS011;10102;50.828;4.416;2024-02-26T10:49:14;6.05;;;5.13;;
19879;SDS011;10102;50.828;4.416;2024-02-26T10:51:43;6.47;;;4.63;;
19879;SDS011;10102;50.828;4.416;2024-02-26T10:54:10;6.00;;;5.18;;
19879;SDS011;10102;50.828;4.416;2024-02-26T10:56:41;5.22;;;4.72;;
19879;SDS011;10102;50.828;4.416;2024-02-26T10:59:11;5.90;;;5.25;;
19879;SDS011;10102;50.828;4.416;2024-02-26T11:01:37;5.28;;;4.78;;
19879;SDS011;10102;50.828;4.416;2024-02-26T11:04:06;6.03;;;4.70;;
19879;SDS011;10102;50.828;4.416;2024-02-26T11:06:33;5.07;;;4.57;;
19879;SDS011;10102;50.828;4.416;2024-02-26T11:09:00;5.85;;;4.88;;
19879;SDS011;10102;50.828;4.416;2024-02-26T11:11:27;5.32;;;4.60;;
19879;SDS011;10102;50.828;4.416;2024-02-26T11:13:54;5.43;;;4.75;;
19879;SDS011;10102;50.828;4.416;2024-02-26T11:16:22;4.45;;;4.05;;
19879;SDS011;10102;50.828;4.416;2024-02-26T11:18:48;4.60;;;4.20;;
19879;SDS011;10102;50.828;4.416;2024-02-26T11:21:17;4.07;;;3.67;;
19879;SDS011;10102;50.828;4.416;2024-02-26T11:23:47;5.68;;;4.10;;
19879;SDS011;10102;50.828;4.416;2024-02-26T11:26:13;4.40;;;3.97;;
19879;SDS011;10102;50.828;4.416;2024-02-26T11:28:41;4.60;;;4.20;;
19879;SDS011;10102;50.828;4.416;2024-02-26T11:31:09;3.55;;;3.25;;
19879;SDS011;10102;50.828;4.416;2024-02-26T11:33:36;3.97;;;3.50;;
19879;SDS011;10102;50.828;4.416;2024-02-26T11:36:02;3.78;;;3.42;;
19879;SDS011;10102;50.828;4.416;2024-02-26T11:38:34;8.55;;;4.03;;
19879;SDS011;10102;50.828;4.416;2024-02-26T11:41:01;3.88;;;3.55;;
19879;SDS011;10102;50.828;4.416;2024-02-26T11:48:56;4.35;;;3.92;;
19879;SDS011;10102;50.828;4.416;2024-02-26T11:51:27;4.07;;;3.58;;
19879;SDS011;10102;50.828;4.416;2024-02-26T11:53:57;4.40;;;3.72;;
19879;SDS011;10102;50.828;4.416;2024-02-26T11:56:24;3.70;;;3.40;;
19879;SDS011;10102;50.828;4.416;2024-02-26T11:59:01;4.13;;;3.72;;
19879;SDS011;10102;50.828;4.416;2024-02-26T12:01:50;4.20;;;3.42;;
19879;SDS011;10102;50.828;4.416;2024-02-26T12:04:24;4.13;;;3.72;;
19879;SDS011;10102;50.828;4.416;2024-02-26T12:06:52;4.55;;;4.15;;
19879;SDS011;10102;50.828;4.416;2024-02-26T12:09:33;4.13;;;3.50;;
19879;SDS011;10102;50.828;4.416;2024-02-26T12:12:07;4.50;;;4.07;;
19879;SDS011;10102;50.828;4.416;2024-02-26T12:14:37;3.90;;;3.50;;
19879;SDS011;10102;50.828;4.416;2024-02-26T12:17:04;4.95;;;3.80;;
19879;SDS011;10102;50.828;4.416;2024-02-26T12:19:33;6.22;;;3.78;;
19879;SDS011;10102;50.828;4.416;2024-02-26T12:22:00;4.05;;;3.65;;
19879;SDS011;10102;50.828;4.416;2024-02-26T12:24:25;3.80;;;3.50;;
19879;SDS011;10102;50.828;4.416;2024-02-26T12:26:51;5.15;;;3.40;;
19879;SDS011;10102;50.828;4.416;2024-02-26T12:29:17;5.47;;;3.97;;
19879;SDS011;10102;50.828;4.416;2024-02-26T12:31:42;4.63;;;3.38;;
19879;SDS011;10102;50.828;4.416;2024-02-26T12:34:09;4.38;;;3.97;;
19879;SDS011;10102;50.828;4.416;2024-02-26T12:36:35;5.57;;;3.70;;
19879;SDS011;10102;50.828;4.416;2024-02-26T12:39:02;4.10;;;3.72;;
19879;SDS011;10102;50.828;4.416;2024-02-26T12:41:30;3.53;;;3.22;;
19879;SDS011;10102;50.828;4.416;2024-02-26T12:43:57;3.60;;;3.30;;
19879;SDS011;10102;50.828;4.416;2024-02-26T12:46:23;3.72;;;3.42;;
19879;SDS011;10102;50.828;4.416;2024-02-26T12:48:51;3.67;;;3.38;;
19879;SDS011;10102;50.828;4.416;2024-02-26T12:51:17;4.88;;;3.25;;
19879;SDS011;10102;50.828;4.416;2024-02-26T12:53:46;4.40;;;3.58;;
19879;SDS011;10102;50.828;4.416;2024-02-26T12:56:15;3.50;;;3.20;;
19879;SDS011;10102;50.828;4.416;2024-02-26T12:58:41;4.13;;;3.33;;
19879;SDS011;10102;50.828;4.416;2024-02-26T13:01:08;4.60;;;3.42;;
19879;SDS011;10102;50.828;4.416;2024-02-26T13:03:41;3.70;;;3.40;;
19879;SDS011;10102;50.828;4.416;2024-02-26T13:06:08;3.47;;;3.17;;
19879;SDS011;10102;50.828;4.416;2024-02-26T13:08:34;4.57;;;3.22;;
19879;SDS011;10102;50.828;4.416;2024-02-26T13:11:00;4.80;;;3.10;;
19879;SDS011;10102;50.828;4.416;2024-02-26T13:13:25;4.30;;;3.42;;
19879;SDS011;10102;50.828;4.416;2024-02-26T13:18:31;5.30;;;3.97;;
19879;SDS011;10102;50.828;4.416;2024-02-26T13:21:07;5.05;;;4.50;;
19879;SDS011;10102;50.828;4.416;2024-02-26T13:23:34;5.70;;;4.35;;
19879;SDS011;10102;50.828;4.416;2024-02-26T13:25:59;6.10;;;3.80;;
19879;SDS011;10102;50.828;4.416;2024-02-26T13:28:25;5.00;;;4.03;;
19879;SDS011;10102;50.828;4.416;2024-02-26T13:30:56;5.13;;;4.40;;
19879;SDS011;10102;50.828;4.416;2024-02-26T13:33:23;5.40;;;4.57;;
19879;SDS011;10102;50.828;4.416;2024-02-26T13:35:49;6.00;;;4.13;;
19879;SDS011;10102;50.828;4.416;2024-02-26T13:38:16;6.80;;;4.70;;
19879;SDS011;10102;50.828;4.416;2024-02-26T13:40:42;5.50;;;4.95;;
19879;SDS011;10102;50.828;4.416;2024-02-26T13:43:08;6.07;;;5.00;;
19879;SDS011;10102;50.828;4.416;2024-02-26T13:45:34;6.82;;;5.40;;
19879;SDS011;10102;50.828;4.416;2024-02-26T13:48:01;10.10;;;5.63;;
19879;SDS011;10102;50.828;4.416;2024-02-26T13:50:28;7.75;;;5.65;;
19879;SDS011;10102;50.828;4.416;2024-02-26T13:52:54;7.60;;;5.75;;
19879;SDS011;10102;50.828;4.416;2024-02-26T13:55:30;7.32;;;6.00;;
19879;SDS011;10102;50.828;4.416;2024-02-26T13:57:57;7.28;;;5.70;;
19879;SDS011;10102;50.828;4.416;2024-02-26T14:00:23;7.95;;;6.20;;
19879;SDS011;10102;50.828;4.416;2024-02-26T14:02:50;7.88;;;6.65;;
19879;SDS011;10102;50.828;4.416;2024-02-26T14:05:16;11.27;;;6.90;;
19879;SDS011;10102;50.828;4.416;2024-02-26T14:07:41;8.18;;;6.85;;
19879;SDS011;10102;50.828;4.416;2024-02-26T14:10:08;7.82;;;6.72;;
19879;SDS011;10102;50.828;4.416;2024-02-26T14:12:36;9.75;;;7.18;;
19879;SDS011;10102;50.828;4.416;2024-02-26T14:15:02;9.48;;;6.93;;
19879;SDS011;10102;50.828;4.416;2024-02-26T14:17:30;8.82;;;6.68;;
19879;SDS011;10102;50.828;4.416;2024-02-26T14:19:56;9.48;;;7.28;;
19879;SDS011;10102;50.828;4.416;2024-02-26T14:22:22;8.77;;;6.63;;
19879;SDS011;10102;50.828;4.416;2024-02-26T14:24:47;10.20;;;6.78;;
19879;SDS011;10102;50.828;4.416;2024-02-26T14:27:13;11.88;;;6.97;;
19879;SDS011;10102;50.828;4.416;2024-02-26T14:29:41;8.55;;;6.70;;
19879;SDS011;10102;50.828;4.416;2024-02-26T14:32:08;8.88;;;6.55;;
19879;SDS011;10102;50.828;4.416;2024-02-26T14:34:37;10.30;;;6.72;;
19879;SDS011;10102;50.828;4.416;2024-02-26T14:37:03;14.30;;;7.30;;
19879;SDS011;10102;50.828;4.416;2024-02-26T14:39:29;8.60;;;7.10;;
19879;SDS011;10102;50.828;4.416;2024-02-26T14:41:57;11.90;;;6.13;;
19879;SDS011;10102;50.828;4.416;2024-02-26T14:44:23;8.35;;;6.80;;
19879;SDS011;10102;50.828;4.416;2024-02-26T14:46:49;10.35;;;8.05;;
19879;SDS011;10102;50.828;4.416;2024-02-26T14:49:15;9.57;;;7.55;;
19879;SDS011;10102;50.828;4.416;2024-02-26T14:51:42;12.55;;;7.85;;
19879;SDS011;10102;50.828;4.416;2024-02-26T14:54:09;11.00;;;7.70;;
19879;SDS011;10102;50.828;4.416;2024-02-26T14:56:36;10.18;;;6.47;;
19879;SDS011;10102;50.828;4.416;2024-02-26T14:59:02;8.90;;;6.32;;